Time;durP1;ratioP1;P1;durP2;ratioP2;P2;SDS_P1;SDS_P2;PMS_P1;PMS_P2;Temp;Humidity;BMP_temperature;BMP_pressure;BME280_temperature;BME280_humidity;BME280_pressure;Samples;Min_cycle;Max_cycle;Signal;HPM_P1;HPM_P2
2023/10/27 00:01:45;;;;;;;4.07;1.90;;;;;;;;;;5052163;28;20032;-58
2023/10/27 00:04:10;;;;;;;4.87;2.10;;;;;;;;;;5052060;28;20032;-57
2023/10/27 00:06:35;;;;;;;4.73;1.90;;;;;;;;;;5052375;28;20389;-57
2023/10/27 00:09:01;;;;;;;4.43;1.90;;;;;;;;;;5052556;28;20071;-58
2023/10/27 00:11:27;;;;;;;6.55;2.00;;;;;;;;;;5049595;28;20024;-57
2023/10/27 00:13:52;;;;;;;3.92;1.77;;;;;;;;;;5051891;28;20021;-57
2023/10/27 00:16:17;;;;;;;5.45;2.10;;;;;;;;;;5049997;28;20055;-56
2023/10/27 00:18:43;;;;;;;4.87;2.00;;;;;;;;;;5050350;28;20012;-58
2023/10/27 00:21:08;;;;;;;5.15;1.83;;;;;;;;;;5043558;28;20405;-57
2023/10/27 00:23:33;;;;;;;5.50;2.03;;;;;;;;;;5051513;28;20025;-57
2023/10/27 00:25:58;;;;;;;6.00;2.27;;;;;;;;;;5050853;28;20021;-58
2023/10/27 00:28:23;;;;;;;5.47;2.40;;;;;;;;;;5051056;28;20032;-58
2023/10/27 00:30:49;;;;;;;4.65;2.15;;;;;;;;;;5050425;28;20028;-57
2023/10/27 00:33:14;;;;;;;4.93;2.10;;;;;;;;;;5050328;28;20033;-57
2023/10/27 00:35:39;;;;;;;4.83;2.10;;;;;;;;;;5049935;28;20029;-56
2023/10/27 00:38:04;;;;;;;4.50;2.10;;;;;;;;;;5050565;28;20024;-56
2023/10/27 00:40:29;;;;;;;5.13;2.40;;;;;;;;;;5050359;28;20043;-58
2023/10/27 00:42:58;;;;;;;4.80;2.10;;;;;;;;;;5051259;28;20511;-56
2023/10/27 00:45:24;;;;;;;4.68;2.22;;;;;;;;;;5054819;28;20100;-58
2023/10/27 00:47:50;;;;;;;7.20;2.67;;;;;;;;;;5050594;28;20025;-56
2023/10/27 00:50:15;;;;;;;4.47;2.47;;;;;;;;;;5050031;28;20036;-57
2023/10/27 00:52:40;;;;;;;4.40;2.13;;;;;;;;;;5047336;28;20183;-57
2023/10/27 00:55:06;;;;;;;4.63;2.10;;;;;;;;;;5050586;28;20021;-59
2023/10/27 00:57:32;;;;;;;5.82;2.10;;;;;;;;;;5050453;28;20027;-58
2023/10/27 00:59:57;;;;;;;5.30;2.35;;;;;;;;;;5050292;28;20026;-57
2023/10/27 01:02:23;;;;;;;4.93;2.70;;;;;;;;;;5050538;28;20394;-59
2023/10/27 01:04:48;;;;;;;5.83;2.30;;;;;;;;;;5050662;28;20023;-59
2023/10/27 01:07:13;;;;;;;4.95;2.38;;;;;;;;;;5050627;28;20033;-57
2023/10/27 01:09:39;;;;;;;6.28;2.33;;;;;;;;;;5046994;28;20036;-58
2023/10/27 01:12:07;;;;;;;4.75;2.08;;;;;;;;;;5045745;28;20489;-58
2023/10/27 01:14:32;;;;;;;5.00;2.13;;;;;;;;;;5050583;28;20017;-58
2023/10/27 01:16:57;;;;;;;4.50;2.37;;;;;;;;;;5050651;28;20567;-56
2023/10/27 01:19:22;;;;;;;4.90;2.17;;;;;;;;;;5049572;28;20078;-56
2023/10/27 01:21:48;;;;;;;4.70;1.98;;;;;;;;;;5048586;28;20021;-57
2023/10/27 01:24:13;;;;;;;5.17;2.10;;;;;;;;;;5051390;28;20029;-57
2023/10/27 01:26:38;;;;;;;6.00;2.33;;;;;;;;;;5053210;28;20474;-57
2023/10/27 01:29:03;;;;;;;5.80;2.30;;;;;;;;;;5048839;28;20025;-57
2023/10/27 01:31:28;;;;;;;5.10;2.20;;;;;;;;;;5049778;28;20555;-57
2023/10/27 01:33:54;;;;;;;4.30;1.97;;;;;;;;;;5050232;28;20036;-57
2023/10/27 01:36:19;;;;;;;5.03;2.50;;;;;;;;;;5065150;28;20044;-57
2023/10/27 01:38:44;;;;;;;4.80;2.08;;;;;;;;;;5068105;28;20032;-58
2023/10/27 01:41:09;;;;;;;7.20;2.45;;;;;;;;;;5070476;28;20037;-58
2023/10/27 01:43:34;;;;;;;4.13;1.95;;;;;;;;;;5075520;28;20017;-58
2023/10/27 01:45:59;;;;;;;4.63;2.00;;;;;;;;;;5065346;28;20085;-56
2023/10/27 01:48:24;;;;;;;4.93;1.98;;;;;;;;;;5070302;28;20023;-57
2023/10/27 01:50:50;;;;;;;4.63;2.30;;;;;;;;;;5054822;28;20028;-58
2023/10/27 01:53:15;;;;;;;4.47;2.17;;;;;;;;;;5054417;28;20067;-57
2023/10/27 01:55:41;;;;;;;4.80;2.20;;;;;;;;;;5054033;28;20552;-58
2023/10/27 01:58:06;;;;;;;5.20;2.77;;;;;;;;;;5054111;28;20017;-58
2023/10/27 02:00:31;;;;;;;6.00;2.10;;;;;;;;;;5051616;28;20043;-58
2023/10/27 02:02:56;;;;;;;4.60;2.07;;;;;;;;;;5054319;28;20017;-59
2023/10/27 02:05:23;;;;;;;5.73;4.47;;;;;;;;;;5054158;28;20428;-58
2023/10/27 02:07:48;;;;;;;7.43;3.38;;;;;;;;;;5052766;28;20561;-57
2023/10/27 02:10:15;;;;;;;4.70;2.08;;;;;;;;;;5053833;28;20104;-57
2023/10/27 02:12:40;;;;;;;;;;;;;;;;;;5054803;28;20021;-57
2023/10/27 02:15:05;;;;;;;5.28;2.80;;;;;;;;;;5050999;28;19908;-57
2023/10/27 02:17:30;;;;;;;6.30;2.40;;;;;;;;;;5053756;28;20031;-56
2023/10/27 02:19:56;;;;;;;8.13;6.40;;;;;;;;;;5053592;28;20021;-57
2023/10/27 02:22:21;;;;;;;5.63;2.17;;;;;;;;;;5053293;28;20043;-56
2023/10/27 02:24:46;;;;;;;5.35;2.22;;;;;;;;;;5053585;28;20021;-58
2023/10/27 02:27:11;;;;;;;6.43;2.80;;;;;;;;;;5049837;28;20092;-58
2023/10/27 02:29:37;;;;;;;5.00;2.13;;;;;;;;;;5053100;28;20025;-58
2023/10/27 02:32:02;;;;;;;5.47;2.00;;;;;;;;;;5051153;28;20084;-57
2023/10/27 02:34:27;;;;;;;6.03;3.10;;;;;;;;;;5053246;28;20021;-57
2023/10/27 02:36:53;;;;;;;6.20;2.40;;;;;;;;;;5056972;28;20016;-58
2023/10/27 02:39:18;;;;;;;5.72;2.45;;;;;;;;;;5053584;28;20036;-58
2023/10/27 02:41:43;;;;;;;7.03;5.80;;;;;;;;;;5052722;28;20021;-56
2023/10/27 02:44:12;;;;;;;5.63;3.77;;;;;;;;;;5053295;28;20029;-57
2023/10/27 02:46:37;;;;;;;5.75;3.25;;;;;;;;;;5053104;28;20090;-55
2023/10/27 02:49:03;;;;;;;6.90;3.80;;;;;;;;;;5052329;28;20028;-58
2023/10/27 02:51:29;;;;;;;5.85;2.50;;;;;;;;;;5053935;28;20028;-58
2023/10/27 02:53:55;;;;;;;6.80;4.63;;;;;;;;;;5053934;28;20548;-58
2023/10/27 02:56:20;;;;;;;6.85;5.07;;;;;;;;;;5054989;28;20017;-57
2023/10/27 02:58:45;;;;;;;6.13;4.93;;;;;;;;;;5055228;28;20040;-57
2023/10/27 03:01:11;;;;;;;5.40;2.47;;;;;;;;;;5054404;28;20021;-58
2023/10/27 03:03:36;;;;;;;8.55;7.63;;;;;;;;;;5053020;28;20032;-57
2023/10/27 03:06:02;;;;;;;5.57;2.70;;;;;;;;;;5052209;28;20033;-58
2023/10/27 03:08:27;;;;;;;6.05;2.80;;;;;;;;;;5051366;28;20082;-58
2023/10/27 03:10:52;;;;;;;15.93;14.77;;;;;;;;;;5053779;28;20044;-57
2023/10/27 03:13:18;;;;;;;9.75;8.73;;;;;;;;;;5053171;28;20029;-56
2023/10/27 03:15:43;;;;;;;13.50;12.50;;;;;;;;;;5051921;28;20349;-57
2023/10/27 03:18:08;;;;;;;5.72;3.30;;;;;;;;;;5053321;28;20079;-58
2023/10/27 03:20:34;;;;;;;11.80;9.53;;;;;;;;;;5057484;28;20036;-58
2023/10/27 03:22:59;;;;;;;21.93;20.33;;;;;;;;;;5069032;28;20085;-56
2023/10/27 03:25:24;;;;;;;6.30;4.17;;;;;;;;;;5071349;28;20036;-58
2023/10/27 03:27:49;;;;;;;14.33;13.23;;;;;;;;;;5056046;28;20045;-58
2023/10/27 03:30:15;;;;;;;6.65;3.53;;;;;;;;;;5051046;28;20056;-58
2023/10/27 03:32:40;;;;;;;22.17;20.52;;;;;;;;;;5051983;28;20506;-58
2023/10/27 03:35:07;;;;;;;11.80;10.80;;;;;;;;;;5049568;28;20078;-57
2023/10/27 03:37:32;;;;;;;;;;;;;;;;;;5051103;28;20024;-58
2023/10/27 03:39:57;;;;;;;21.13;19.80;;;;;;;;;;5051848;28;19912;-57
2023/10/27 03:42:22;;;;;;;17.03;15.80;;;;;;;;;;5052010;28;20071;-57
2023/10/27 03:44:47;;;;;;;40.38;38.05;;;;;;;;;;5052121;28;20025;-58
2023/10/27 03:47:13;;;;;;;6.70;4.30;;;;;;;;;;5050924;28;20400;-58
2023/10/27 03:49:38;;;;;;;65.22;61.42;;;;;;;;;;5051673;28;20690;-58
2023/10/27 03:52:03;;;;;;;9.03;8.13;;;;;;;;;;5051562;28;20067;-59
2023/10/27 03:54:29;;;;;;;7.53;3.00;;;;;;;;;;5051928;28;20020;-58
2023/10/27 03:56:54;;;;;;;16.40;15.27;;;;;;;;;;5051113;28;20121;-56
2023/10/27 03:59:19;;;;;;;6.85;4.15;;;;;;;;;;5051186;28;20571;-59
2023/10/27 04:01:44;;;;;;;24.10;22.53;;;;;;;;;;5051199;28;20021;-58
2023/10/27 04:04:10;;;;;;;9.20;8.40;;;;;;;;;;5048238;28;20036;-59
2023/10/27 04:06:36;;;;;;;86.68;81.85;;;;;;;;;;5051948;28;20013;-58
2023/10/27 04:09:02;;;;;;;24.10;22.43;;;;;;;;;;5051340;28;20032;-58
2023/10/27 04:11:27;;;;;;;33.30;31.02;;;;;;;;;;5052184;28;20373;-58
2023/10/27 04:13:52;;;;;;;69.97;66.13;;;;;;;;;;5052036;28;20013;-57
2023/10/27 04:16:18;;;;;;;38.00;35.72;;;;;;;;;;5052130;28;20021;-58
2023/10/27 04:18:44;;;;;;;10.45;9.45;;;;;;;;;;5052220;28;20051;-57
2023/10/27 04:21:09;;;;;;;;;;;;;;;;;;5056184;28;20036;-58
2023/10/27 04:23:34;;;;;;;7.88;3.92;;;;;;;;;;5058167;28;19909;-56
2023/10/27 04:26:00;;;;;;;6.60;3.50;;;;;;;;;;5056304;28;20029;-58
2023/10/27 04:28:25;;;;;;;6.93;4.70;;;;;;;;;;5045417;28;20041;-58
2023/10/27 04:30:52;;;;;;;9.32;8.50;;;;;;;;;;5047270;28;20017;-59
2023/10/27 04:33:18;;;;;;;16.77;15.57;;;;;;;;;;5048164;28;20023;-58
2023/10/27 04:35:44;;;;;;;23.60;21.90;;;;;;;;;;5048061;28;20155;-59
2023/10/27 04:38:09;;;;;;;32.00;30.02;;;;;;;;;;5047596;28;20423;-58
2023/10/27 04:40:35;;;;;;;50.85;48.03;;;;;;;;;;5047293;28;20032;-59
2023/10/27 04:43:00;;;;;;;52.72;49.78;;;;;;;;;;5047691;28;20096;-59
2023/10/27 04:45:25;;;;;;;12.55;11.43;;;;;;;;;;5047285;28;20036;-57
2023/10/27 04:47:50;;;;;;;15.25;14.02;;;;;;;;;;5048019;28;20051;-57
2023/10/27 04:50:17;;;;;;;15.37;13.97;;;;;;;;;;5047191;28;20674;-58
2023/10/27 04:52:42;;;;;;;7.30;4.25;;;;;;;;;;5048086;28;20420;-57
2023/10/27 04:55:08;;;;;;;8.57;5.75;;;;;;;;;;5048189;28;20021;-58
2023/10/27 04:57:35;;;;;;;8.73;5.75;;;;;;;;;;5047791;28;20024;-57
2023/10/27 05:00:00;;;;;;;;;;;;;;;;;;5045008;28;20029;-57
2023/10/27 05:02:25;;;;;;;32.25;30.08;;;;;;;;;;5046617;28;20031;-59
2023/10/27 05:04:50;;;;;;;28.00;26.03;;;;;;;;;;5046436;28;20021;-58
2023/10/27 05:07:15;;;;;;;40.63;37.83;;;;;;;;;;5047946;28;20017;-59
2023/10/27 05:09:40;;;;;;;22.23;20.53;;;;;;;;;;5045478;28;20025;-59
2023/10/27 05:12:06;;;;;;;12.47;10.33;;;;;;;;;;5046972;28;20027;-59
2023/10/27 05:14:32;;;;;;;30.47;28.17;;;;;;;;;;5050891;28;20033;-58
2023/10/27 05:16:58;;;;;;;45.75;42.80;;;;;;;;;;5047524;28;20028;-58
2023/10/27 05:19:23;;;;;;;19.23;17.63;;;;;;;;;;5049756;28;20020;-58
2023/10/27 05:21:49;;;;;;;17.33;15.60;;;;;;;;;;5049726;28;20543;-58
2023/10/27 05:24:14;;;;;;;13.53;10.13;;;;;;;;;;5050353;28;20057;-58
2023/10/27 05:26:39;;;;;;;14.63;13.10;;;;;;;;;;5049440;28;20104;-57
2023/10/27 05:29:04;;;;;;;11.67;10.03;;;;;;;;;;5050706;28;20091;-59
2023/10/27 05:31:29;;;;;;;14.47;12.97;;;;;;;;;;5050649;28;20029;-60
2023/10/27 05:33:55;;;;;;;11.17;9.87;;;;;;;;;;5048583;28;20468;-59
2023/10/27 05:36:20;;;;;;;22.63;20.87;;;;;;;;;;5047899;28;20845;-59
2023/10/27 05:38:45;;;;;;;17.67;16.13;;;;;;;;;;5048269;28;20521;-58
2023/10/27 05:41:11;;;;;;;18.40;16.80;;;;;;;;;;5050099;28;20033;-59
2023/10/27 05:43:36;;;;;;;20.83;19.13;;;;;;;;;;5049970;28;20028;-57
2023/10/27 05:46:01;;;;;;;24.13;22.30;;;;;;;;;;5042946;28;20025;-58
2023/10/27 05:48:26;;;;;;;33.90;31.47;;;;;;;;;;5046679;28;20029;-58
2023/10/27 05:50:51;;;;;;;25.87;23.83;;;;;;;;;;5048881;28;20100;-58
2023/10/27 05:53:17;;;;;;;10.33;7.17;;;;;;;;;;5048787;28;20088;-57
2023/10/27 05:55:43;;;;;;;18.43;16.67;;;;;;;;;;5050636;28;20021;-59
2023/10/27 05:58:08;;;;;;;12.82;6.65;;;;;;;;;;5048994;28;20052;-57
2023/10/27 06:00:33;;;;;;;17.43;15.83;;;;;;;;;;5037115;28;20528;-58
2023/10/27 06:02:58;;;;;;;9.47;5.80;;;;;;;;;;5050550;28;20005;-57
2023/10/27 06:05:24;;;;;;;10.70;5.47;;;;;;;;;;5047437;28;20452;-57
2023/10/27 06:07:50;;;;;;;13.18;11.70;;;;;;;;;;5046435;28;20037;-58
2023/10/27 06:10:15;;;;;;;21.40;19.60;;;;;;;;;;5036002;28;20030;-58
2023/10/27 06:12:40;;;;;;;17.93;16.40;;;;;;;;;;5031148;28;20021;-57
2023/10/27 06:15:06;;;;;;;30.90;28.77;;;;;;;;;;5043188;28;20080;-57
2023/10/27 06:17:32;;;;;;;32.25;30.00;;;;;;;;;;5045838;28;20063;-57
2023/10/27 06:19:57;;;;;;;18.90;17.23;;;;;;;;;;5044690;28;20021;-58
2023/10/27 06:22:23;;;;;;;24.43;22.53;;;;;;;;;;5046976;28;20020;-56
2023/10/27 06:24:48;;;;;;;21.90;20.00;;;;;;;;;;5044938;28;20024;-57
2023/10/27 06:27:13;;;;;;;11.43;6.17;;;;;;;;;;5046932;28;20025;-58
2023/10/27 06:29:38;;;;;;;9.87;6.13;;;;;;;;;;5050361;28;20488;-59
2023/10/27 06:32:04;;;;;;;18.30;15.57;;;;;;;;;;5050743;28;20159;-59
2023/10/27 06:34:29;;;;;;;14.00;10.05;;;;;;;;;;5048087;28;20096;-58
2023/10/27 06:36:54;;;;;;;15.33;13.67;;;;;;;;;;5051645;28;20049;-58
2023/10/27 06:39:19;;;;;;;17.57;13.50;;;;;;;;;;5051215;28;20495;-57
2023/10/27 06:41:46;;;;;;;22.57;20.60;;;;;;;;;;5049123;28;20055;-57
2023/10/27 06:44:11;;;;;;;40.97;37.85;;;;;;;;;;5050301;28;20559;-57
2023/10/27 06:46:38;;;;;;;33.40;30.90;;;;;;;;;;5053190;28;20055;-58
2023/10/27 06:49:03;;;;;;;31.58;29.08;;;;;;;;;;5053308;28;20056;-58
2023/10/27 06:51:28;;;;;;;37.17;34.30;;;;;;;;;;5052720;28;20147;-58
2023/10/27 06:53:54;;;;;;;13.50;11.40;;;;;;;;;;5053664;28;20021;-57
2023/10/27 06:56:20;;;;;;;11.13;8.40;;;;;;;;;;5053538;28;20021;-59
2023/10/27 06:58:45;;;;;;;;;;;;;;;;;;5053926;28;20389;-57
2023/10/27 07:01:10;;;;;;;11.40;6.55;;;;;;;;;;5053180;28;19908;-58
2023/10/27 07:03:37;;;;;;;16.43;12.93;;;;;;;;;;5053960;28;20056;-59
2023/10/27 07:06:06;;;;;;;14.77;13.27;;;;;;;;;;5051346;28;20035;-58
2023/10/27 07:08:31;;;;;;;16.73;10.52;;;;;;;;;;5059054;28;20036;-58
2023/10/27 07:10:59;;;;;;;37.85;35.22;;;;;;;;;;5069206;28;20021;-58
2023/10/27 07:13:25;;;;;;;20.95;9.00;;;;;;;;;;5072993;28;20017;-57
2023/10/27 07:15:50;;;;;;;40.17;37.40;;;;;;;;;;5061183;28;20068;-57
2023/10/27 07:18:15;;;;;;;14.17;9.87;;;;;;;;;;5055741;28;20017;-58
2023/10/27 07:20:41;;;;;;;18.13;12.40;;;;;;;;;;5055597;28;20033;-58
2023/10/27 07:23:06;;;;;;;15.50;9.80;;;;;;;;;;5051526;28;20021;-57
2023/10/27 07:25:31;;;;;;;19.67;17.67;;;;;;;;;;5052952;28;20108;-57
2023/10/27 07:27:57;;;;;;;34.47;31.93;;;;;;;;;;5052856;28;20013;-57
2023/10/27 07:30:22;;;;;;;12.93;8.38;;;;;;;;;;5052277;28;20508;-57
2023/10/27 07:32:47;;;;;;;17.30;13.77;;;;;;;;;;5053082;28;20044;-57
2023/10/27 07:35:12;;;;;;;24.77;22.50;;;;;;;;;;5052913;28;20074;-57
2023/10/27 07:37:38;;;;;;;33.87;31.47;;;;;;;;;;5053167;28;20074;-58
2023/10/27 07:40:03;;;;;;;60.73;56.83;;;;;;;;;;5048604;28;20108;-57
2023/10/27 07:42:29;;;;;;;14.27;11.98;;;;;;;;;;5052597;28;20094;-58
2023/10/27 07:44:54;;;;;;;19.47;17.57;;;;;;;;;;5052537;28;20385;-58
2023/10/27 07:47:19;;;;;;;19.77;16.23;;;;;;;;;;5046260;28;20024;-56
2023/10/27 07:49:44;;;;;;;15.17;13.17;;;;;;;;;;5052412;28;20035;-57
2023/10/27 07:52:09;;;;;;;25.73;23.43;;;;;;;;;;5052298;28;20165;-57
2023/10/27 07:54:34;;;;;;;14.23;10.50;;;;;;;;;;5052520;28;20039;-58
2023/10/27 07:57:00;;;;;;;29.35;27.13;;;;;;;;;;5052044;28;20040;-57
2023/10/27 07:59:26;;;;;;;14.30;8.70;;;;;;;;;;5052187;28;20025;-59
2023/10/27 08:01:51;;;;;;;18.42;15.80;;;;;;;;;;5050988;28;20017;-58
2023/10/27 08:04:18;;;;;;;11.77;8.68;;;;;;;;;;5049029;28;20437;-58
2023/10/27 08:06:44;;;;;;;22.00;20.10;;;;;;;;;;5044262;28;20021;-56
2023/10/27 08:09:09;;;;;;;17.00;14.65;;;;;;;;;;5051441;28;20016;-57
2023/10/27 08:11:34;;;;;;;17.40;15.20;;;;;;;;;;5051474;28;20025;-56
2023/10/27 08:13:59;;;;;;;76.15;71.40;;;;;;;;;;5051887;28;20045;-57
2023/10/27 08:16:24;;;;;;;31.40;29.03;;;;;;;;;;5049921;28;20020;-58
2023/10/27 08:18:49;;;;;;;43.33;40.37;;;;;;;;;;5051806;28;20017;-59
2023/10/27 08:21:15;;;;;;;25.80;23.70;;;;;;;;;;5052473;28;20619;-57
2023/10/27 08:23:40;;;;;;;43.50;40.27;;;;;;;;;;5054431;28;20036;-57
2023/10/27 08:26:05;;;;;;;128.40;120.93;;;;;;;;;;5053261;28;20029;-57
2023/10/27 08:28:30;;;;;;;14.37;8.53;;;;;;;;;;5053222;28;20112;-56
2023/10/27 08:30:56;;;;;;;16.15;12.02;;;;;;;;;;5052136;28;20013;-58
2023/10/27 08:33:21;;;;;;;15.35;11.57;;;;;;;;;;5054105;28;20017;-57
2023/10/27 08:35:46;;;;;;;35.63;32.90;;;;;;;;;;5051810;28;20028;-58
2023/10/27 08:38:11;;;;;;;18.38;16.65;;;;;;;;;;5051593;28;20025;-58
2023/10/27 08:40:37;;;;;;;17.80;14.80;;;;;;;;;;5050588;28;20047;-56
2023/10/27 08:43:03;;;;;;;37.83;34.90;;;;;;;;;;5051516;28;20021;-58
2023/10/27 08:45:28;;;;;;;15.38;9.85;;;;;;;;;;5049858;28;20041;-58
2023/10/27 08:47:53;;;;;;;41.05;38.25;;;;;;;;;;5048909;28;20032;-58
2023/10/27 08:50:19;;;;;;;19.88;17.85;;;;;;;;;;5049290;28;20025;-57
2023/10/27 08:52:45;;;;;;;18.10;15.27;;;;;;;;;;5051098;28;20116;-59
2023/10/27 08:55:10;;;;;;;22.80;20.70;;;;;;;;;;5050836;28;20028;-58
2023/10/27 08:57:36;;;;;;;16.73;14.77;;;;;;;;;;5051036;28;20608;-59
2023/10/27 09:00:02;;;;;;;27.25;24.98;;;;;;;;;;5050655;28;20607;-59
2023/10/27 09:02:29;;;;;;;23.80;21.85;;;;;;;;;;5051174;28;20090;-57
2023/10/27 09:04:59;;;;;;;93.25;87.72;;;;;;;;;;5048835;28;20021;-56
2023/10/27 09:07:24;;;;;;;12.50;8.23;;;;;;;;;;5050787;28;20036;-59
2023/10/27 09:09:49;;;;;;;25.58;23.40;;;;;;;;;;5050506;28;20423;-57
2023/10/27 09:12:22;;;;;;;14.90;10.82;;;;;;;;;;5049358;28;20036;-58
2023/10/27 09:14:47;;;;;;;;;;;;;;;;;;5047798;28;20028;-58
2023/10/27 09:17:12;;;;;;;13.10;10.75;;;;;;;;;;5051771;28;19904;-58
2023/10/27 09:19:39;;;;;;;47.90;44.77;;;;;;;;;;5052927;28;20153;-59
2023/10/27 09:22:13;;;;;;;40.60;37.60;;;;;;;;;;5053792;28;20051;-58
2023/10/27 09:24:38;;;;;;;20.70;18.77;;;;;;;;;;5051760;28;20021;-58
2023/10/27 09:27:04;;;;;;;43.20;40.27;;;;;;;;;;5049663;28;20635;-59
2023/10/27 09:29:38;;;;;;;12.93;9.65;;;;;;;;;;5048910;28;20029;-57
2023/10/27 09:32:04;;;;;;;14.68;12.63;;;;;;;;;;5050096;28;20052;-58
2023/10/27 09:34:31;;;;;;;26.92;24.45;;;;;;;;;;5050866;28;20052;-57
2023/10/27 09:36:58;;;;;;;45.45;42.13;;;;;;;;;;5051150;28;20096;-57
2023/10/27 09:39:23;;;;;;;16.25;9.13;;;;;;;;;;5049353;28;20035;-60
2023/10/27 09:41:55;;;;;;;26.85;24.40;;;;;;;;;;5050279;28;20025;-58
2023/10/27 09:44:25;;;;;;;19.17;17.17;;;;;;;;;;5048343;28;20021;-59
2023/10/27 09:46:51;;;;;;;17.85;12.65;;;;;;;;;;5048320;28;20021;-58
2023/10/27 09:49:22;;;;;;;18.30;11.45;;;;;;;;;;5050312;28;20085;-56
2023/10/27 09:51:48;;;;;;;35.17;32.22;;;;;;;;;;5047572;28;20431;-57
2023/10/27 09:54:14;;;;;;;20.10;18.23;;;;;;;;;;5051268;28;20017;-57
2023/10/27 09:56:39;;;;;;;15.15;12.50;;;;;;;;;;5052316;28;20025;-58
2023/10/27 09:59:06;;;;;;;29.52;27.20;;;;;;;;;;5054753;28;20079;-57
2023/10/27 10:01:31;;;;;;;13.38;8.50;;;;;;;;;;5055804;28;20036;-58
2023/10/27 10:03:56;;;;;;;51.80;48.17;;;;;;;;;;5058834;28;20021;-57
2023/10/27 10:06:23;;;;;;;15.10;8.97;;;;;;;;;;5067604;28;20021;-58
2023/10/27 10:09:08;;;;;;;46.70;43.53;;;;;;;;;;5069906;28;20005;-57
2023/10/27 10:11:46;;;;;;;16.13;13.00;;;;;;;;;;5055648;28;20049;-58
2023/10/27 10:14:31;;;;;;;56.13;52.55;;;;;;;;;;5052788;28;20021;-58
2023/10/27 10:16:57;;;;;;;48.40;45.15;;;;;;;;;;5054356;28;20499;-58
2023/10/27 10:19:45;;;;;;;14.83;11.30;;;;;;;;;;5053442;28;20025;-58
2023/10/27 10:22:30;;;;;;;16.73;14.68;;;;;;;;;;5054467;28;20037;-57
2023/10/27 10:25:14;;;;;;;48.60;45.35;;;;;;;;;;5054665;28;20020;-58
2023/10/27 10:27:59;;;;;;;18.83;16.40;;;;;;;;;;5055519;28;20025;-58
2023/10/27 10:30:24;;;;;;;16.55;11.23;;;;;;;;;;5048539;28;20059;-58
2023/10/27 10:32:49;;;;;;;31.80;29.35;;;;;;;;;;5055026;28;20212;-58
2023/10/27 10:35:24;;;;;;;22.33;20.23;;;;;;;;;;5055624;28;20032;-58
2023/10/27 10:37:51;;;;;;;20.00;16.02;;;;;;;;;;5054517;28;20441;-57
2023/10/27 10:40:22;;;;;;;22.45;20.25;;;;;;;;;;5054055;28;20021;-58
2023/10/27 10:43:06;;;;;;;35.13;32.38;;;;;;;;;;5054694;28;20381;-58
2023/10/27 10:45:31;;;;;;;13.95;10.32;;;;;;;;;;5052265;28;20078;-57
2023/10/27 10:47:56;;;;;;;43.33;39.95;;;;;;;;;;5053229;28;20017;-59
2023/10/27 10:50:28;;;;;;;13.87;7.63;;;;;;;;;;5053211;28;20021;-58
2023/10/27 10:53:09;;;;;;;31.85;29.38;;;;;;;;;;5053222;28;20467;-58
2023/10/27 10:55:34;;;;;;;24.58;22.67;;;;;;;;;;5053487;28;20029;-57
2023/10/27 10:57:59;;;;;;;61.57;57.87;;;;;;;;;;5053148;28;20017;-58
2023/10/27 11:00:31;;;;;;;14.75;13.25;;;;;;;;;;5051749;28;20028;-57
2023/10/27 11:03:07;;;;;;;49.00;45.80;;;;;;;;;;5053167;28;20017;-57
2023/10/27 11:05:32;;;;;;;12.40;9.48;;;;;;;;;;5053238;28;20025;-57
2023/10/27 11:07:58;;;;;;;64.70;61.00;;;;;;;;;;5053201;28;20091;-57
2023/10/27 11:10:23;;;;;;;13.25;12.05;;;;;;;;;;5052605;28;20373;-59
2023/10/27 11:12:49;;;;;;;34.03;31.70;;;;;;;;;;5052681;28;20023;-58
2023/10/27 11:15:33;;;;;;;12.55;10.95;;;;;;;;;;5053476;28;20483;-59
2023/10/27 11:18:10;;;;;;;65.88;62.00;;;;;;;;;;5051761;28;20028;-58
2023/10/27 11:20:35;;;;;;;38.30;35.78;;;;;;;;;;5052070;28;20275;-57
2023/10/27 11:23:14;;;;;;;34.78;32.58;;;;;;;;;;5053362;28;20024;-57
2023/10/27 11:25:40;;;;;;;18.92;17.38;;;;;;;;;;5052894;28;20036;-58
2023/10/27 11:28:23;;;;;;;17.83;16.13;;;;;;;;;;5052837;28;20025;-57
2023/10/27 11:30:57;;;;;;;28.10;26.13;;;;;;;;;;5049359;28;20099;-58
2023/10/27 11:33:22;;;;;;;12.90;11.68;;;;;;;;;;5045395;28;20023;-55
2023/10/27 11:35:48;;;;;;;80.80;76.23;;;;;;;;;;5051807;28;20115;-56
2023/10/27 11:38:14;;;;;;;15.27;13.82;;;;;;;;;;5053095;28;20025;-57
2023/10/27 11:40:39;;;;;;;31.92;29.88;;;;;;;;;;5052107;28;20032;-58
2023/10/27 11:43:04;;;;;;;65.75;61.95;;;;;;;;;;5052562;28;20024;-57
2023/10/27 11:45:29;;;;;;;29.50;27.37;;;;;;;;;;5052743;28;20550;-58
2023/10/27 11:47:54;;;;;;;25.47;23.87;;;;;;;;;;5051414;28;20029;-58
2023/10/27 11:50:19;;;;;;;8.40;6.10;;;;;;;;;;5051228;28;20045;-57
2023/10/27 11:52:44;;;;;;;30.02;28.10;;;;;;;;;;5039197;28;20033;-58
2023/10/27 11:55:10;;;;;;;30.70;28.75;;;;;;;;;;5032941;28;20428;-57
2023/10/27 11:57:36;;;;;;;18.67;17.53;;;;;;;;;;5033168;28;20021;-60
2023/10/27 12:00:01;;;;;;;15.80;14.75;;;;;;;;;;5032211;28;20615;-59
2023/10/27 12:02:26;;;;;;;62.13;58.90;;;;;;;;;;5047257;28;20028;-58
2023/10/27 12:04:51;;;;;;;12.65;11.63;;;;;;;;;;5048792;28;20013;-58
2023/10/27 12:07:17;;;;;;;28.52;26.95;;;;;;;;;;5051989;28;20031;-57
2023/10/27 12:09:42;;;;;;;103.95;98.60;;;;;;;;;;5052193;28;20032;-57
2023/10/27 12:12:09;;;;;;;23.13;21.83;;;;;;;;;;5052112;28;20021;-58
2023/10/27 12:14:34;;;;;;;11.93;11.15;;;;;;;;;;5052221;28;20032;-58
2023/10/27 12:16:59;;;;;;;24.30;22.90;;;;;;;;;;5052042;28;20021;-57
2023/10/27 12:19:24;;;;;;;37.00;35.03;;;;;;;;;;5050617;28;20089;-57
2023/10/27 12:21:50;;;;;;;14.47;13.57;;;;;;;;;;5052622;28;20028;-57
2023/10/27 12:24:15;;;;;;;17.10;15.82;;;;;;;;;;5052333;28;20110;-59
2023/10/27 12:26:40;;;;;;;3.38;2.55;;;;;;;;;;5052793;28;20077;-58
2023/10/27 12:29:08;;;;;;;10.73;9.93;;;;;;;;;;5054596;28;20095;-58
2023/10/27 12:31:33;;;;;;;10.93;10.20;;;;;;;;;;5049488;28;20020;-58
2023/10/27 12:33:58;;;;;;;8.65;8.02;;;;;;;;;;5049017;28;20385;-57
2023/10/27 12:36:24;;;;;;;21.90;20.70;;;;;;;;;;5052108;28;20465;-59
2023/10/27 12:38:50;;;;;;;18.33;17.13;;;;;;;;;;5051740;28;20398;-57
2023/10/27 12:41:15;;;;;;;21.80;20.53;;;;;;;;;;5055307;28;20162;-59
2023/10/27 12:43:40;;;;;;;34.27;32.40;;;;;;;;;;5074721;28;20032;-58
2023/10/27 12:46:05;;;;;;;37.93;35.87;;;;;;;;;;5065351;28;20055;-57
2023/10/27 12:48:31;;;;;;;24.27;22.93;;;;;;;;;;5063925;28;20060;-58
2023/10/27 12:50:56;;;;;;;18.35;17.30;;;;;;;;;;5058124;28;20013;-57
2023/10/27 12:53:22;;;;;;;23.60;22.27;;;;;;;;;;5065605;28;20024;-58
2023/10/27 12:55:47;;;;;;;5.20;3.70;;;;;;;;;;5062243;28;20472;-58
2023/10/27 12:58:12;;;;;;;28.50;26.77;;;;;;;;;;5063675;28;20021;-58
2023/10/27 13:00:39;;;;;;;9.50;8.80;;;;;;;;;;5050637;28;20082;-57
2023/10/27 13:03:04;;;;;;;5.85;3.33;;;;;;;;;;5051308;28;20020;-58
2023/10/27 13:05:29;;;;;;;48.73;46.17;;;;;;;;;;5051430;28;20005;-58
2023/10/27 13:07:56;;;;;;;32.93;31.10;;;;;;;;;;5045949;28;20100;-56
2023/10/27 13:10:24;;;;;;;48.70;46.03;;;;;;;;;;5049913;28;20013;-57
2023/10/27 13:12:50;;;;;;;31.83;30.08;;;;;;;;;;5049677;28;20027;-57
2023/10/27 13:15:15;;;;;;;24.17;22.83;;;;;;;;;;5054330;28;20029;-59
2023/10/27 13:17:41;;;;;;;45.97;43.57;;;;;;;;;;5050498;28;20029;-56
2023/10/27 13:20:06;;;;;;;31.70;29.92;;;;;;;;;;5037188;28;20483;-57
2023/10/27 13:22:33;;;;;;;12.40;11.38;;;;;;;;;;5050874;28;20009;-57
2023/10/27 13:24:59;;;;;;;5.63;3.42;;;;;;;;;;5047106;28;20051;-57
2023/10/27 13:27:24;;;;;;;20.02;18.20;;;;;;;;;;5047127;28;21416;-56
2023/10/27 13:29:49;;;;;;;7.23;4.77;;;;;;;;;;5041828;28;20083;-57
2023/10/27 13:32:15;;;;;;;23.77;22.07;;;;;;;;;;5050655;28;20431;-57
2023/10/27 13:34:40;;;;;;;18.33;16.92;;;;;;;;;;5054411;28;20021;-58
2023/10/27 13:37:05;;;;;;;26.53;24.83;;;;;;;;;;5052570;28;20492;-59
2023/10/27 13:39:31;;;;;;;25.47;23.73;;;;;;;;;;5051376;28;20033;-60
2023/10/27 13:41:56;;;;;;;38.63;36.33;;;;;;;;;;5053461;28;20029;-56
2023/10/27 13:44:22;;;;;;;28.40;26.60;;;;;;;;;;5054741;28;20092;-59
2023/10/27 13:46:47;;;;;;;47.95;45.03;;;;;;;;;;5054426;28;20113;-58
2023/10/27 13:49:13;;;;;;;23.10;21.50;;;;;;;;;;5048292;28;20572;-58
2023/10/27 13:51:38;;;;;;;16.97;15.67;;;;;;;;;;5048745;28;20091;-58
2023/10/27 13:54:04;;;;;;;10.13;5.28;;;;;;;;;;5057000;28;20086;-57
2023/10/27 13:56:29;;;;;;;7.75;4.53;;;;;;;;;;5055799;28;20020;-58
2023/10/27 13:58:54;;;;;;;7.77;4.63;;;;;;;;;;5042314;28;20555;-58
2023/10/27 14:01:20;;;;;;;19.33;17.92;;;;;;;;;;5045043;28;20029;-58
2023/10/27 14:03:45;;;;;;;9.07;8.10;;;;;;;;;;5051338;28;20013;-58
2023/10/27 14:06:16;;;;;;;17.45;16.13;;;;;;;;;;5042846;28;20398;-60
2023/10/27 14:08:41;;;;;;;24.13;22.60;;;;;;;;;;5043763;28;20100;-59
2023/10/27 14:11:06;;;;;;;34.10;31.97;;;;;;;;;;5046067;28;20562;-58
2023/10/27 14:13:32;;;;;;;34.43;32.30;;;;;;;;;;5048598;28;20025;-58
2023/10/27 14:15:57;;;;;;;65.68;61.97;;;;;;;;;;5046408;28;20021;-59
2023/10/27 14:18:22;;;;;;;19.15;17.70;;;;;;;;;;5048828;28;20029;-59
2023/10/27 14:20:50;;;;;;;10.03;9.03;;;;;;;;;;5046789;28;20025;-58
2023/10/27 14:23:16;;;;;;;8.20;6.60;;;;;;;;;;5045038;28;20036;-59